^^
Your Local Weather - Clay, NY Station Historical Data
Daily Summary for September 17, 2017 Units:  English    Metric   Both
« Previous Day
Next Day »
Daily Weekly Monthly Yearly Custom
  High: Low: Average:
Temperature: 81.8 °F 55.2 °F 66.8 °F
Dew Point: 68.0 °F 53.5 °F 61.2 °F
Humidity: 95% 56% 84%
Wind Speed: 2.0mph 0.0mph 0.3mph
Wind Gust: 4.0mph - -
Wind- - ESE
Pressure: 30.14 in 30.02 in -
Precipitation: 0.00 in    
Historical Graphs
 
 
Tabular Data for September 17, 2017
Time Temperature Dew Point Pressure Wind Wind Speed Wind Gust Humidity Rainfall Rate (Hourly) solar
00:03 59.5 °F 57.5 °F 30.12 in Calm     93% 0.00 in 0 W/m2
00:09 59.3 °F 57.3 °F 30.12 in Calm     93% 0.00 in 0 W/m2
00:15 59.5 °F 57.5 °F 30.12 in Calm     93% 0.00 in 0 W/m2
00:22 59.3 °F 57.3 °F 30.12 in Calm     93% 0.00 in 0 W/m2
00:28 59.1 °F 57.1 °F 30.11 in Calm     93% 0.00 in 0 W/m2
00:33 58.9 °F 56.9 °F 30.11 in Calm     93% 0.00 in 0 W/m2
00:39 58.7 °F 56.7 °F 30.11 in Calm     93% 0.00 in 0 W/m2
00:45 58.6 °F 56.6 °F 30.11 in Calm     93% 0.00 in 0 W/m2
00:52 58.6 °F 56.6 °F 30.11 in Calm     93% 0.00 in 0 W/m2
00:58 58.4 °F 56.4 °F 30.11 in Calm     93% 0.00 in 0 W/m2
01:04 58.4 °F 56.7 °F 30.11 in Calm     94% 0.00 in 0 W/m2
01:10 58.5 °F 56.8 °F 30.11 in Calm     94% 0.00 in 0 W/m2
01:16 58.5 °F 56.8 °F 30.11 in Calm     94% 0.00 in 0 W/m2
01:22 58.3 °F 56.6 °F 30.11 in Calm     94% 0.00 in 0 W/m2
01:28 58.2 °F 56.2 °F 30.11 in Calm     93% 0.00 in 0 W/m2
01:40 58.2 °F 56.5 °F 30.10 in Calm     94% 0.00 in 0 W/m2
01:46 58.3 °F 56.6 °F 30.10 in Calm     94% 0.00 in 0 W/m2
01:52 58.4 °F 56.7 °F 30.10 in Calm     94% 0.00 in 0 W/m2
01:58 58.3 °F 56.6 °F 30.10 in Calm     94% 0.00 in 0 W/m2
02:04 58.1 °F 56.4 °F 30.10 in Calm     94% 0.00 in 0 W/m2
02:10 57.9 °F 56.2 °F 30.10 in Calm     94% 0.00 in 0 W/m2
02:16 57.8 °F 56.1 °F 30.10 in Calm     94% 0.00 in 0 W/m2
02:22 57.7 °F 56.0 °F 30.10 in Calm     94% 0.00 in 0 W/m2
02:28 57.7 °F 56.0 °F 30.10 in Calm     94% 0.00 in 0 W/m2
02:34 57.8 °F 56.1 °F 30.10 in Calm     94% 0.00 in 0 W/m2
02:40 57.5 °F 55.8 °F 30.10 in Calm     94% 0.00 in 0 W/m2
02:46 57.5 °F 55.8 °F 30.10 in Calm     94% 0.00 in 0 W/m2
02:52 57.3 °F 55.6 °F 30.10 in Calm     94% 0.00 in 0 W/m2
02:58 57.1 °F 55.4 °F 30.10 in Calm     94% 0.00 in 0 W/m2
03:04 57.0 °F 55.3 °F 30.10 in Calm     94% 0.00 in 0 W/m2
03:10 57.0 °F 55.3 °F 30.10 in Calm     94% 0.00 in 0 W/m2
03:16 56.8 °F 55.1 °F 30.10 in Calm     94% 0.00 in 0 W/m2
03:22 56.7 °F 55.0 °F 30.10 in Calm     94% 0.00 in 0 W/m2
03:28 56.8 °F 55.1 °F 30.10 in Calm     94% 0.00 in 0 W/m2
03:34 56.7 °F 55.0 °F 30.10 in Calm     94% 0.00 in 0 W/m2
03:40 56.6 °F 54.9 °F 30.10 in Calm     94% 0.00 in 0 W/m2
03:46 56.5 °F 54.8 °F 30.10 in Calm     94% 0.00 in 0 W/m2
03:52 56.5 °F 54.8 °F 30.10 in Calm     94% 0.00 in 0 W/m2
03:58 56.4 °F 54.7 °F 30.10 in Calm     94% 0.00 in 0 W/m2
04:04 56.3 °F 54.6 °F 30.10 in Calm     94% 0.00 in 0 W/m2
04:10 56.1 °F 54.4 °F 30.10 in Calm     94% 0.00 in 0 W/m2
04:16 56.0 °F 54.3 °F 30.10 in Calm     94% 0.00 in 0 W/m2
04:22 56.0 °F 54.3 °F 30.10 in Calm     94% 0.00 in 0 W/m2
04:28 56.0 °F 54.3 °F 30.10 in Calm     94% 0.00 in 0 W/m2
04:34 55.9 °F 54.2 °F 30.10 in Calm     94% 0.00 in 0 W/m2
04:40 55.9 °F 54.2 °F 30.10 in Calm     94% 0.00 in 0 W/m2
04:46 56.0 °F 54.3 °F 30.09 in Calm     94% 0.00 in 0 W/m2
04:52 55.9 °F 54.2 °F 30.10 in Calm     94% 0.00 in 0 W/m2
04:58 55.8 °F 54.1 °F 30.10 in Calm     94% 0.00 in 0 W/m2
05:04 55.9 °F 54.2 °F 30.10 in Calm     94% 0.00 in 0 W/m2
05:10 55.8 °F 54.1 °F 30.10 in Calm     94% 0.00 in 0 W/m2
05:16 55.7 °F 54.0 °F 30.10 in Calm     94% 0.00 in 0 W/m2
05:22 55.7 °F 54.0 °F 30.11 in Calm     94% 0.00 in 0 W/m2
05:28 55.6 °F 53.9 °F 30.11 in Calm     94% 0.00 in 0 W/m2
05:34 55.7 °F 54.0 °F 30.11 in Calm     94% 0.00 in 0 W/m2
05:46 55.6 °F 54.2 °F 30.11 in Calm     95% 0.00 in 0 W/m2
05:52 55.5 °F 54.1 °F 30.12 in Calm     95% 0.00 in 0 W/m2
05:58 55.6 °F 54.2 °F 30.12 in Calm     95% 0.00 in 0 W/m2
06:04 55.5 °F 53.8 °F 30.12 in Calm     94% 0.00 in 0 W/m2
06:10 55.4 °F 53.7 °F 30.12 in Calm     94% 0.00 in 0 W/m2
06:16 55.3 °F 53.6 °F 30.12 in Calm     94% 0.00 in 0 W/m2
06:28 55.2 °F 53.5 °F 30.12 in Calm     94% 0.00 in 0 W/m2
06:36 55.2 °F 53.8 °F 30.12 in Calm     95% 0.00 in 0 W/m2
06:42 55.3 °F 53.9 °F 30.12 in Calm     95% 0.00 in 0 W/m2
06:48 55.4 °F 54.0 °F 30.12 in Calm     95% 0.00 in 0 W/m2
06:54 55.6 °F 54.2 °F 30.13 in Calm     95% 0.00 in 5 W/m2
07:00 55.9 °F 54.5 °F 30.13 in Calm     95% 0.00 in 7 W/m2
07:06 56.2 °F 54.8 °F 30.13 in Calm     95% 0.00 in 9 W/m2
07:12 56.4 °F 55.0 °F 30.13 in Calm     95% 0.00 in 12 W/m2
07:18 56.6 °F 55.2 °F 30.13 in Calm     95% 0.00 in 14 W/m2
07:24 57.0 °F 55.6 °F 30.13 in Calm     95% 0.00 in 18 W/m2
07:30 57.6 °F 56.2 °F 30.13 in Calm     95% 0.00 in 23 W/m2
07:36 58.0 °F 56.6 °F 30.13 in Calm     95% 0.00 in 28 W/m2
07:42 58.2 °F 56.8 °F 30.13 in Calm     95% 0.00 in 35 W/m2
07:48 58.5 °F 57.1 °F 30.13 in Calm     95% 0.00 in 44 W/m2
07:54 58.9 °F 57.5 °F 30.13 in Calm     95% 0.00 in 63 W/m2
08:00 59.5 °F 58.1 °F 30.13 in Calm     95% 0.00 in 74 W/m2
08:06 59.9 °F 58.5 °F 30.13 in Calm     95% 0.00 in 69 W/m2
08:12 60.5 °F 59.1 °F 30.13 in Calm     95% 0.00 in 105 W/m2
08:18 60.9 °F 59.5 °F 30.13 in Calm     95% 0.00 in 107 W/m2
08:24 61.3 °F 59.9 °F 30.13 in Calm     95% 0.00 in 128 W/m2
08:30 61.5 °F 60.1 °F 30.13 in Calm     95% 0.00 in 134 W/m2
08:36 61.5 °F 60.1 °F 30.13 in Calm     95% 0.00 in 72 W/m2
08:42 61.6 °F 60.2 °F 30.13 in Calm     95% 0.00 in 72 W/m2
08:48 61.9 °F 60.5 °F 30.14 in Calm   1.0 mph 95% 0.00 in 72 W/m2
08:54 62.1 °F 60.7 °F 30.14 in Calm   1.0 mph 95% 0.00 in 84 W/m2
09:00 62.4 °F 60.9 °F 30.14 in Calm     95% 0.00 in 90 W/m2
09:06 62.6 °F 61.1 °F 30.13 in Calm     95% 0.00 in 98 W/m2
09:12 62.6 °F 61.1 °F 30.13 in Calm   3.0 mph 95% 0.00 in 120 W/m2
09:18 62.6 °F 61.1 °F 30.13 in North 1.0 mph 3.0 mph 95% 0.00 in 146 W/m2
09:24 62.7 °F 61.2 °F 30.13 in Calm   1.0 mph 95% 0.00 in 142 W/m2
09:30 63.0 °F 61.5 °F 30.13 in Calm     95% 0.00 in 156 W/m2
09:36 63.3 °F 61.8 °F 30.13 in Calm   1.0 mph 95% 0.00 in 171 W/m2
09:42 63.7 °F 62.2 °F 30.13 in Calm     95% 0.00 in 225 W/m2
09:48 64.0 °F 62.5 °F 30.13 in Calm     95% 0.00 in 146 W/m2
09:54 64.0 °F 62.5 °F 30.13 in Calm     95% 0.00 in 197 W/m2
10:00 64.2 °F 62.7 °F 30.13 in Calm     95% 0.00 in 156 W/m2
10:06 64.4 °F 62.9 °F 30.13 in Calm   1.0 mph 95% 0.00 in 192 W/m2
10:12 65.3 °F 63.8 °F 30.13 in Calm   2.0 mph 95% 0.00 in 355 W/m2
10:18 66.5 °F 65.0 °F 30.13 in SE 1.0 mph 2.0 mph 95% 0.00 in 570 W/m2
10:24 67.2 °F 65.7 °F 30.13 in Calm   2.0 mph 95% 0.00 in 555 W/m2
10:30 67.8 °F 66.3 °F 30.13 in SSE 1.0 mph 1.0 mph 95% 0.00 in 550 W/m2
10:36 68.5 °F 65.8 °F 30.13 in SSE 1.0 mph 2.0 mph 91% 0.00 in 559 W/m2
10:42 69.1 °F 65.1 °F 30.13 in SSE 2.0 mph 2.0 mph 87% 0.00 in 369 W/m2
10:48 69.7 °F 65.3 °F 30.13 in SSE 1.0 mph 4.0 mph 86% 0.00 in 598 W/m2
10:54 69.9 °F 64.8 °F 30.13 in SSE 1.0 mph 2.0 mph 84% 0.00 in 295 W/m2
11:00 70.4 °F 65.0 °F 30.13 in SSE 1.0 mph 1.0 mph 83% 0.00 in 417 W/m2
11:06 71.2 °F 65.1 °F 30.13 in SSE 1.0 mph 2.0 mph 81% 0.00 in 325 W/m2
11:12 71.2 °F 65.4 °F 30.12 in SSE 1.0 mph 1.0 mph 82% 0.00 in 459 W/m2
11:18 71.8 °F 66.0 °F 30.12 in Calm   1.0 mph 82% 0.00 in 601 W/m2
11:24 72.5 °F 66.0 °F 30.12 in South 1.0 mph 2.0 mph 80% 0.00 in 758 W/m2
11:30 73.5 °F 66.2 °F 30.12 in SE 1.0 mph 2.0 mph 78% 0.00 in 582 W/m2
11:36 73.9 °F 66.2 °F 30.12 in South 1.0 mph 3.0 mph 77% 0.00 in 710 W/m2
11:42 73.3 °F 65.7 °F 30.12 in SSW 2.0 mph 3.0 mph 77% 0.00 in 367 W/m2
11:48 74.1 °F 67.9 °F 30.11 in SE 2.0 mph 3.0 mph 81% 0.00 in 679 W/m2
11:54 74.2 °F 65.8 °F 30.11 in SE 1.0 mph 4.0 mph 75% 0.00 in 705 W/m2
12:00 74.6 °F 66.1 °F 30.11 in SW 2.0 mph 3.0 mph 75% 0.00 in 694 W/m2
12:12 74.8 °F 65.6 °F 30.11 in SSE 2.0 mph 3.0 mph 73% 0.00 in 707 W/m2
12:18 75.9 °F 66.2 °F 30.10 in SE 1.0 mph 3.0 mph 72% 0.00 in 714 W/m2
12:24 75.5 °F 64.6 °F 30.10 in South 2.0 mph 4.0 mph 69% 0.00 in 715 W/m2
12:30 75.8 °F 65.3 °F 30.10 in South 1.0 mph 2.0 mph 70% 0.00 in 715 W/m2
12:36 76.6 °F 65.7 °F 30.10 in South 1.0 mph 2.0 mph 69% 0.00 in 722 W/m2
12:42 76.8 °F 65.9 °F 30.10 in SSE 1.0 mph 3.0 mph 69% 0.00 in 724 W/m2
12:48 76.9 °F 65.1 °F 30.10 in SSE 1.0 mph 3.0 mph 67% 0.00 in 726 W/m2
12:54 77.3 °F 65.9 °F 30.09 in Calm     68% 0.00 in 728 W/m2
13:00 77.5 °F 65.7 °F 30.09 in Calm   1.0 mph 67% 0.00 in 729 W/m2
13:12 78.4 °F 65.7 °F 30.08 in SSW 1.0 mph 4.0 mph 65% 0.00 in 719 W/m2
13:18 78.9 °F 67.4 °F 30.08 in ESE 1.0 mph 4.0 mph 68% 0.00 in 724 W/m2
13:24 78.2 °F 65.9 °F 30.08 in ESE 1.0 mph 3.0 mph 66% 0.00 in 721 W/m2
13:30 79.3 °F 67.4 °F 30.08 in NNE 2.0 mph 2.0 mph 67% 0.00 in 719 W/m2
13:36 79.7 °F 65.1 °F 30.08 in North 1.0 mph 2.0 mph 61% 0.00 in 715 W/m2
13:42 80.3 °F 65.6 °F 30.08 in North 1.0 mph 1.0 mph 61% 0.00 in 707 W/m2
13:48 78.9 °F 64.3 °F 30.07 in East 2.0 mph 3.0 mph 61% 0.00 in 703 W/m2
13:54 79.2 °F 65.5 °F 30.07 in East 2.0 mph 3.0 mph 63% 0.00 in 694 W/m2
14:00 79.4 °F 67.0 °F 30.07 in ENE 1.0 mph 3.0 mph 66% 0.00 in 691 W/m2
14:12 80.3 °F 64.2 °F 30.07 in NNE 2.0 mph 2.0 mph 58% 0.00 in 673 W/m2
14:18 80.5 °F 66.3 °F 30.07 in NNE 2.0 mph 3.0 mph 62% 0.00 in 670 W/m2
14:24 80.6 °F 65.4 °F 30.07 in NNE 2.0 mph 3.0 mph 60% 0.00 in 659 W/m2
14:30 80.4 °F 64.3 °F 30.07 in NE 1.0 mph 1.0 mph 58% 0.00 in 652 W/m2
14:36 81.0 °F 64.3 °F 30.07 in NNE 1.0 mph 3.0 mph 57% 0.00 in 642 W/m2
14:42 80.9 °F 63.7 °F 30.07 in NE 2.0 mph 2.0 mph 56% 0.00 in 629 W/m2
14:48 80.2 °F 64.6 °F 30.06 in East 1.0 mph 3.0 mph 59% 0.00 in 624 W/m2
15:00 81.1 °F 64.4 °F 30.05 in ENE 1.0 mph 2.0 mph 57% 0.00 in 601 W/m2
15:06 81.3 °F 64.6 °F 30.05 in ENE 1.0 mph 2.0 mph 57% 0.00 in 594 W/m2
15:12 81.4 °F 66.7 °F 30.05 in Calm   1.0 mph 61% 0.00 in 580 W/m2
15:24 81.3 °F 64.1 °F 30.05 in East 1.0 mph 1.0 mph 56% 0.00 in 559 W/m2
15:30 81.1 °F 65.4 °F 30.04 in ENE 1.0 mph 3.0 mph 59% 0.00 in 541 W/m2
15:36 81.7 °F 66.9 °F 30.04 in NW 1.0 mph 3.0 mph 61% 0.00 in 534 W/m2
15:42 81.6 °F 65.9 °F 30.04 in NNE 2.0 mph 2.0 mph 59% 0.00 in 513 W/m2
15:48 81.6 °F 65.9 °F 30.04 in North 2.0 mph 2.0 mph 59% 0.00 in 496 W/m2
15:54 81.8 °F 66.1 °F 30.04 in North 1.0 mph 2.0 mph 59% 0.00 in 490 W/m2
16:00 81.6 °F 66.4 °F 30.04 in ESE 1.0 mph 2.0 mph 60% 0.00 in 473 W/m2
16:06 80.8 °F 64.6 °F 30.04 in NE 1.0 mph 2.0 mph 58% 0.00 in 452 W/m2
16:12 81.5 °F 65.8 °F 30.04 in NE 1.0 mph 2.0 mph 59% 0.00 in 441 W/m2
16:18 81.5 °F 65.3 °F 30.04 in Calm   2.0 mph 58% 0.00 in 427 W/m2
16:24 81.1 °F 65.4 °F 30.04 in ENE 1.0 mph 2.0 mph 59% 0.00 in 413 W/m2
16:30 81.4 °F 66.2 °F 30.04 in ENE 1.0 mph 2.0 mph 60% 0.00 in 392 W/m2
16:36 81.4 °F 64.2 °F 30.04 in NNE 1.0 mph 3.0 mph 56% 0.00 in 394 W/m2
16:42 81.0 °F 63.8 °F 30.04 in ENE 2.0 mph 3.0 mph 56% 0.00 in 373 W/m2
16:48 81.2 °F 65.0 °F 30.03 in North 2.0 mph 3.0 mph 58% 0.00 in 334 W/m2
16:54 80.9 °F 64.2 °F 30.03 in NNE 2.0 mph 2.0 mph 57% 0.00 in 320 W/m2
17:00 80.9 °F 64.2 °F 30.03 in NNW 2.0 mph 2.0 mph 57% 0.00 in 294 W/m2
17:06 80.8 °F 63.6 °F 30.03 in NNE 1.0 mph 2.0 mph 56% 0.00 in 279 W/m2
17:12 80.5 °F 63.9 °F 30.03 in NNE 2.0 mph 3.0 mph 57% 0.00 in 262 W/m2
17:18 80.4 °F 65.7 °F 30.03 in NNE 1.0 mph 3.0 mph 61% 0.00 in 251 W/m2
17:24 80.0 °F 66.3 °F 30.03 in Calm   1.0 mph 63% 0.00 in 116 W/m2
17:30 79.5 °F 66.3 °F 30.03 in Calm     64% 0.00 in 218 W/m2
17:36 79.2 °F 65.1 °F 30.03 in Calm   1.0 mph 62% 0.00 in 202 W/m2
17:42 79.1 °F 65.4 °F 30.03 in Calm   1.0 mph 63% 0.00 in 84 W/m2
17:48 79.0 °F 67.1 °F 30.02 in Calm   1.0 mph 67% 0.00 in 98 W/m2
17:54 78.9 °F 67.4 °F 30.02 in Calm     68% 0.00 in 118 W/m2
18:00 78.3 °F 66.9 °F 30.02 in Calm     68% 0.00 in 104 W/m2
18:06 77.4 °F 66.8 °F 30.02 in Calm     70% 0.00 in 53 W/m2
18:12 76.7 °F 67.4 °F 30.02 in Calm     73% 0.00 in 47 W/m2
18:18 76.4 °F 67.9 °F 30.02 in Calm     75% 0.00 in 42 W/m2
18:24 75.7 °F 68.0 °F 30.02 in Calm     77% 0.00 in 40 W/m2
18:30 74.9 °F 67.2 °F 30.02 in Calm     77% 0.00 in 33 W/m2
18:36 74.1 °F 66.8 °F 30.02 in Calm     78% 0.00 in 28 W/m2
18:42 73.5 °F 66.2 °F 30.02 in Calm     78% 0.00 in 25 W/m2
18:48 73.2 °F 65.9 °F 30.02 in Calm     78% 0.00 in 18 W/m2
18:54 72.6 °F 65.3 °F 30.02 in Calm     78% 0.00 in 12 W/m2
19:00 72.1 °F 65.2 °F 30.02 in Calm     79% 0.00 in 9 W/m2
19:06 71.6 °F 65.5 °F 30.02 in Calm     81% 0.00 in 5 W/m2
19:12 71.2 °F 65.1 °F 30.02 in Calm     81% 0.00 in 0 W/m2
19:18 70.8 °F 65.0 °F 30.02 in Calm     82% 0.00 in 0 W/m2
19:24 70.6 °F 64.8 °F 30.03 in Calm     82% 0.00 in 0 W/m2
19:30 70.3 °F 64.9 °F 30.03 in Calm     83% 0.00 in 0 W/m2
19:36 69.9 °F 64.5 °F 30.03 in Calm     83% 0.00 in 0 W/m2
19:42 69.4 °F 64.4 °F 30.03 in Calm     84% 0.00 in 0 W/m2
19:48 68.9 °F 63.9 °F 30.03 in Calm     84% 0.00 in 0 W/m2
19:54 68.6 °F 63.6 °F 30.04 in Calm     84% 0.00 in 0 W/m2
20:00 68.3 °F 63.3 °F 30.04 in Calm     84% 0.00 in 0 W/m2
20:06 68.0 °F 63.3 °F 30.04 in Calm   1.0 mph 85% 0.00 in 0 W/m2
20:12 68.2 °F 63.9 °F 30.04 in Calm     86% 0.00 in 0 W/m2
20:18 68.3 °F 63.6 °F 30.04 in Calm     85% 0.00 in 0 W/m2
20:24 68.3 °F 63.6 °F 30.04 in Calm   1.0 mph 85% 0.00 in 0 W/m2
20:30 67.9 °F 63.2 °F 30.04 in Calm     85% 0.00 in 0 W/m2
20:36 67.6 °F 63.3 °F 30.04 in Calm     86% 0.00 in 0 W/m2
20:42 67.4 °F 63.4 °F 30.04 in Calm     87% 0.00 in 0 W/m2
20:48 67.2 °F 63.2 °F 30.05 in Calm     87% 0.00 in 0 W/m2
20:54 67.1 °F 63.1 °F 30.05 in Calm     87% 0.00 in 0 W/m2
21:00 66.9 °F 63.2 °F 30.05 in Calm     88% 0.00 in 0 W/m2
21:06 66.7 °F 63.0 °F 30.05 in Calm     88% 0.00 in 0 W/m2
21:10 66.6 °F 62.9 °F 30.05 in Calm     88% 0.00 in 0 W/m2
21:16 66.3 °F 63.0 °F 30.05 in Calm     89% 0.00 in 0 W/m2
21:22 66.2 °F 62.9 °F 30.05 in Calm     89% 0.00 in 0 W/m2
21:28 66.0 °F 62.7 °F 30.05 in Calm     89% 0.00 in 0 W/m2
21:34 65.8 °F 62.8 °F 30.05 in Calm     90% 0.00 in 0 W/m2
21:40 65.8 °F 62.8 °F 30.05 in Calm     90% 0.00 in 0 W/m2
21:46 65.7 °F 62.7 °F 30.05 in Calm     90% 0.00 in 0 W/m2
21:52 65.6 °F 62.6 °F 30.05 in Calm     90% 0.00 in 0 W/m2
21:58 65.4 °F 62.4 °F 30.05 in Calm     90% 0.00 in 0 W/m2
22:04 65.5 °F 62.8 °F 30.06 in Calm     91% 0.00 in 0 W/m2
22:10 65.3 °F 62.6 °F 30.06 in Calm     91% 0.00 in 0 W/m2
22:16 65.1 °F 62.4 °F 30.06 in Calm     91% 0.00 in 0 W/m2
22:22 65.0 °F 62.3 °F 30.06 in Calm     91% 0.00 in 0 W/m2
22:28 64.9 °F 62.2 °F 30.06 in Calm     91% 0.00 in 0 W/m2
22:34 64.7 °F 62.0 °F 30.06 in Calm     91% 0.00 in 0 W/m2
22:40 64.4 °F 61.7 °F 30.06 in Calm     91% 0.00 in 0 W/m2
22:46 64.3 °F 61.6 °F 30.05 in Calm     91% 0.00 in 0 W/m2
22:52 64.2 °F 61.8 °F 30.05 in Calm     92% 0.00 in 0 W/m2
22:58 64.1 °F 61.7 °F 30.05 in Calm     92% 0.00 in 0 W/m2
23:04 64.0 °F 61.6 °F 30.05 in Calm     92% 0.00 in 0 W/m2
23:10 63.9 °F 61.5 °F 30.05 in Calm     92% 0.00 in 0 W/m2
23:18 63.7 °F 61.3 °F 30.05 in Calm     92% 0.00 in 0 W/m2
23:24 63.6 °F 61.2 °F 30.05 in Calm     92% 0.00 in 0 W/m2
23:30 63.4 °F 61.0 °F 30.05 in Calm     92% 0.00 in 0 W/m2
23:32 63.4 °F 61.0 °F 30.05 in Calm     92% 0.00 in 0 W/m2
23:36 63.4 °F 61.0 °F 30.05 in Calm     92% 0.00 in 0 W/m2
23:42 63.3 °F 60.9 °F 30.05 in Calm     92% 0.00 in 0 W/m2
23:48 63.2 °F 60.8 °F 30.05 in Calm     92% 0.00 in 0 W/m2
23:50 63.2 °F 60.8 °F 30.05 in Calm     92% 0.00 in 0 W/m2
23:56 63.0 °F 60.6 °F 30.05 in Calm     92% 0.00 in 0 W/m2
Country Meadow, Clay, NY, USA
Compliments of Weather Underground - 2 mb